createdAt,value
2019-05-11T00:03:57.376Z,99.9
2019-05-11T00:08:59.803Z,99.9
2019-05-11T00:14:02.608Z,99.9
2019-05-11T00:19:04.817Z,99.9
2019-05-11T00:24:07.338Z,99.9
2019-05-11T00:29:09.918Z,99.9
2019-05-11T00:34:12.186Z,99.9
2019-05-11T00:39:14.779Z,99.9
2019-05-11T00:44:17.013Z,99.9
2019-05-11T00:49:19.465Z,99.9
2019-05-11T00:54:22.662Z,99.9
2019-05-11T00:59:24.358Z,99.9
2019-05-11T01:04:26.970Z,99.9
2019-05-11T01:09:29.297Z,99.9
2019-05-11T01:14:31.800Z,99.9
2019-05-11T01:19:34.231Z,99.9
2019-05-11T01:24:36.904Z,99.9
2019-05-11T01:29:39.179Z,99.9
2019-05-11T01:34:41.696Z,99.9
2019-05-11T01:39:44.668Z,99.9
2019-05-11T01:44:46.554Z,99.9
2019-05-11T01:49:49.015Z,99.9
2019-05-11T01:54:51.620Z,99.9
2019-05-11T01:59:53.899Z,99.9
2019-05-11T02:04:56.369Z,99.9
2019-05-11T02:09:58.920Z,99.9
2019-05-11T02:15:01.310Z,99.9
2019-05-11T02:20:03.775Z,99.9
2019-05-11T02:25:06.191Z,99.9
2019-05-11T02:30:08.716Z,99.9
2019-05-11T02:35:11.086Z,99.9
2019-05-11T02:40:14.026Z,99.9
2019-05-11T02:45:16.069Z,99.9
2019-05-11T02:50:18.473Z,99.9
2019-05-11T02:55:20.977Z,99.9
2019-05-11T03:00:23.375Z,99.9
2019-05-11T05:26:34.740Z,99.9
2019-05-11T10:34:04.738Z,99.9
2019-05-11T10:39:07.844Z,99.9
2019-05-11T10:44:09.531Z,99.9
2019-05-11T10:49:12.491Z,99.9
2019-05-11T10:54:14.446Z,99.9
2019-05-11T10:59:18.713Z,99.9
2019-05-11T11:04:19.296Z,99.9
2019-05-11T11:09:21.787Z,99.9
2019-05-11T11:14:24.224Z,99.9
2019-05-11T11:19:28.908Z,99.9
2019-05-11T11:24:29.254Z,99.9
2019-05-11T11:29:31.809Z,99.9
2019-05-11T11:34:34.051Z,99.9
2019-05-11T11:39:38.571Z,99.9
2019-05-11T11:44:38.982Z,1
2019-05-11T11:49:41.400Z,1
2019-05-11T11:54:44.136Z,1
2019-05-11T11:59:48.053Z,1
2019-05-11T12:04:48.810Z,1
2019-05-11T12:09:51.444Z,1
2019-05-11T12:14:53.707Z,1
2019-05-11T12:19:58.317Z,1
2019-05-11T12:24:58.967Z,1
2019-05-11T12:30:01.716Z,1
2019-05-11T12:35:03.537Z,1
2019-05-11T12:40:08.373Z,1
2019-05-11T12:45:09.013Z,1
2019-05-11T12:50:10.924Z,1
2019-05-11T12:55:13.549Z,1
2019-05-11T13:00:17.718Z,1
2019-05-11T13:05:18.333Z,1
2019-05-11T13:10:20.840Z,1
2019-05-11T13:15:23.191Z,1
2019-05-11T13:20:25.846Z,18.3
2019-05-11T13:25:28.386Z,99.9
2019-05-11T13:30:30.598Z,99.9
2019-05-11T13:35:33.034Z,99.9
2019-05-11T13:40:35.543Z,99.9
2019-05-11T13:45:38.676Z,99.9
2019-05-11T13:50:40.873Z,99.9
2019-05-11T13:55:43.128Z,14.9
2019-05-11T14:00:45.364Z,17.6
2019-05-11T14:05:48.257Z,1
2019-05-11T14:10:50.332Z,1
2019-05-11T14:15:52.786Z,1
2019-05-11T14:20:55.153Z,1
2019-05-11T14:25:57.783Z,1
2019-05-11T14:31:00.080Z,1
2019-05-11T14:36:02.801Z,1
2019-05-11T14:41:04.989Z,1
2019-05-11T14:46:08.532Z,1
2019-05-11T14:51:10.032Z,1
2019-05-11T14:56:12.357Z,1
2019-05-11T15:01:15.154Z,1
2019-05-11T15:06:18.769Z,1
2019-05-11T15:11:19.764Z,1
2019-05-11T15:16:22.238Z,1
2019-05-11T15:21:24.651Z,1
2019-05-11T15:26:27.746Z,1
2019-05-11T15:31:29.577Z,1
2019-05-11T15:36:32.300Z,1
2019-05-11T15:41:34.534Z,1
2019-05-11T15:46:38.880Z,1
2019-05-11T15:51:41.115Z,1
2019-05-11T15:56:41.855Z,1
2019-05-11T16:01:44.359Z,1
2019-05-11T16:06:46.789Z,1
2019-05-11T16:11:49.247Z,1
2019-05-11T16:16:51.969Z,1
2019-05-11T16:21:54.256Z,1
2019-05-11T16:26:58.198Z,1
2019-05-11T16:31:59.101Z,1
2019-05-11T16:37:01.517Z,1
2019-05-11T16:42:04.009Z,1
2019-05-11T16:47:07.825Z,1
2019-05-11T16:52:10.175Z,1
2019-05-11T16:57:11.411Z,1
2019-05-11T17:02:13.812Z,1
2019-05-11T17:07:16.279Z,1
2019-05-11T17:12:18.729Z,1
2019-05-11T17:17:22.614Z,1
2019-05-11T17:22:23.629Z,1
2019-05-11T17:27:28.322Z,1
2019-05-11T17:32:29.304Z,1
2019-05-11T17:37:31.006Z,1
2019-05-11T17:42:33.570Z,1
2019-05-11T17:47:35.943Z,1
2019-05-11T17:52:39.034Z,1
2019-05-11T17:57:40.909Z,1
2019-05-11T18:02:43.301Z,1
2019-05-11T18:07:45.823Z,1
2019-05-11T18:12:48.730Z,1
2019-05-11T18:17:50.692Z,1
2019-05-11T18:22:53.244Z,1
2019-05-11T18:27:55.628Z,1
2019-05-11T18:32:59.371Z,1
2019-05-11T18:38:00.486Z,1
2019-05-11T18:43:02.945Z,1
2019-05-11T18:48:07.839Z,1
2019-05-11T18:53:09.099Z,1
2019-05-11T18:58:10.349Z,1
2019-05-11T19:03:12.822Z,1
2019-05-11T19:08:15.254Z,1
2019-05-11T19:13:17.788Z,1
2019-05-11T19:18:20.198Z,1
2019-05-11T19:23:22.642Z,1
2019-05-11T19:28:27.853Z,3.9
2019-05-11T19:33:27.839Z,17.7
2019-05-11T19:38:29.993Z,34.9
2019-05-11T19:43:32.445Z,52
2019-05-11T19:48:34.908Z,86.8
2019-05-11T19:53:38.583Z,99.9
2019-05-11T19:58:39.864Z,99.9
2019-05-11T20:03:42.801Z,99.9
2019-05-11T20:08:44.997Z,99.9
2019-05-11T20:13:48.237Z,99.9
2019-05-11T20:18:49.685Z,99.9
2019-05-11T20:23:52.383Z,99.9
2019-05-11T20:28:54.644Z,99.9
2019-05-11T20:33:57.090Z,99.9
2019-05-11T20:38:59.485Z,99.9
2019-05-11T20:44:01.961Z,99.9
2019-05-11T20:49:04.767Z,99.9
2019-05-11T20:54:08.774Z,99.9
2019-05-11T20:59:09.572Z,99.9
2019-05-11T21:04:11.789Z,99.9
2019-05-11T21:09:14.310Z,99.9
2019-05-11T21:14:18.180Z,99.9
2019-05-11T21:19:19.194Z,99.9
2019-05-11T21:24:21.943Z,99.9
2019-05-11T21:29:24.130Z,99.9
2019-05-11T21:34:27.907Z,99.9
2019-05-11T21:39:29.144Z,99.9
2019-05-11T21:44:31.539Z,99.9
2019-05-11T21:49:34.162Z,99.9
2019-05-11T21:54:38.637Z,99.9
2019-05-11T21:59:38.813Z,99.9
2019-05-11T22:04:41.289Z,99.9
2019-05-11T22:09:44.157Z,99.9
2019-05-11T22:14:46.192Z,99.9
2019-05-11T22:19:48.721Z,99.9
2019-05-11T22:24:51.135Z,99.9
2019-05-11T22:29:53.604Z,99.9
2019-05-11T22:34:58.203Z,99.9
2019-05-11T22:40:00.618Z,99.9
2019-05-11T22:45:00.911Z,99.9
2019-05-11T22:50:03.674Z,99.9
2019-05-11T22:55:08.774Z,99.9
2019-05-11T23:00:08.393Z,99.9
2019-05-11T23:05:10.868Z,99.9
2019-05-11T23:10:13.358Z,99.9
2019-05-11T23:15:15.745Z,99.9
2019-05-11T23:20:18.138Z,99.9
2019-05-11T23:25:20.580Z,99.9
2019-05-11T23:30:23.075Z,99.9
2019-05-11T23:35:25.484Z,99.9
2019-05-11T23:40:28.494Z,99.9
2019-05-11T23:45:30.430Z,99.9
2019-05-11T23:50:32.881Z,99.9
2019-05-11T23:55:35.447Z,99.9
